createdAt,value
2022-11-09T00:01:05.117Z,95714.94
2022-11-09T00:03:33.154Z,95701.25
2022-11-09T00:06:01.857Z,95717.84
2022-11-09T00:08:31.058Z,95722.03
2022-11-09T00:11:03.957Z,95701.53
2022-11-09T00:13:31.887Z,95699.38
2022-11-09T00:16:00.231Z,95723.75
2022-11-09T00:18:28.013Z,95726.91
2022-11-09T00:20:56.978Z,95724.88
2022-11-09T00:23:24.785Z,95723.25
2022-11-09T00:25:53.944Z,95692.50
2022-11-09T00:28:21.687Z,95705.03
2022-11-09T00:30:49.450Z,95680.38
2022-11-09T00:33:17.670Z,95721.06
2022-11-09T00:35:45.687Z,95702.56
2022-11-09T00:38:13.510Z,95687.47
2022-11-09T00:40:41.296Z,95718.44
2022-11-09T00:43:10.709Z,95693.22
2022-11-09T00:45:38.538Z,95676.72
2022-11-09T00:48:06.499Z,95716.56
2022-11-09T00:50:34.855Z,95706.59
2022-11-09T00:53:02.687Z,95718.31
2022-11-09T00:55:30.487Z,95700.84
2022-11-09T00:57:58.281Z,95702.91
2022-11-09T01:00:27.495Z,95708.47
2022-11-09T01:02:55.279Z,95706.91
2022-11-09T01:05:25.022Z,95708.94
2022-11-09T01:07:52.761Z,95711.03
2022-11-09T01:10:20.483Z,95714.19
2022-11-09T01:12:48.241Z,95714.63
2022-11-09T01:15:16.334Z,95729.47
2022-11-09T01:17:45.530Z,95683.53
2022-11-09T01:20:13.771Z,95717.41
2022-11-09T01:22:41.478Z,95693.22
2022-11-09T01:25:09.883Z,95704.16
2022-11-09T01:27:37.648Z,95695.72
2022-11-09T01:30:07.983Z,95702.38
2022-11-09T01:32:35.902Z,95685.59
2022-11-09T01:35:08.545Z,95704.72
2022-11-09T01:37:36.296Z,95711.72
2022-11-09T01:40:04.347Z,95703.47
2022-11-09T01:42:37.328Z,95700.13
2022-11-09T01:45:26.682Z,95701.16
2022-11-09T01:48:03.331Z,95713.44
2022-11-09T01:50:45.629Z,95696.00
2022-11-09T01:53:19.248Z,95671.56
2022-11-09T01:55:51.453Z,95687.84
2022-11-09T01:58:24.176Z,95710.69
2022-11-09T02:00:52.845Z,95682.31
2022-11-09T02:03:23.757Z,95702.81
2022-11-09T02:05:53.682Z,95701.81
2022-11-09T02:08:24.395Z,95694.97
2022-11-09T02:11:00.035Z,95672.94
2022-11-09T02:13:30.551Z,95706.00
2022-11-09T02:15:58.342Z,95698.28
2022-11-09T02:18:26.315Z,95712.06
2022-11-09T02:20:58.853Z,95697.94
2022-11-09T02:23:27.711Z,95697.69
2022-11-09T02:25:59.877Z,95690.63
2022-11-09T02:28:29.145Z,95668.78
2022-11-09T02:30:58.822Z,95695.66
2022-11-09T02:33:27.309Z,95695.72
2022-11-09T02:35:58.661Z,95690.38
2022-11-09T02:38:26.516Z,95699.47
2022-11-09T02:40:54.912Z,95688.72
2022-11-09T02:43:23.964Z,95687.47
2022-11-09T02:45:51.806Z,95689.59
2022-11-09T02:48:19.796Z,95687.91
2022-11-09T02:50:48.602Z,95693.25
2022-11-09T02:53:18.163Z,95694.63
2022-11-09T02:55:46.556Z,95697.06
2022-11-09T02:58:15.058Z,95692.22
2022-11-09T03:00:46.272Z,95677.72
2022-11-09T03:03:14.954Z,95677.72
2022-11-09T03:05:44.846Z,95690.91
2022-11-09T03:08:14.330Z,95676.91
2022-11-09T03:10:46.215Z,95679.06
2022-11-09T03:13:21.428Z,95689.56
2022-11-09T03:15:49.484Z,95689.97
2022-11-09T03:18:17.301Z,95703.66
2022-11-09T03:20:45.258Z,95671.13
2022-11-09T03:23:16.921Z,95676.66
2022-11-09T03:25:46.501Z,95664.50
2022-11-09T03:28:14.310Z,95695.78
2022-11-09T03:30:42.324Z,95691.31
2022-11-09T03:33:12.571Z,95690.72
2022-11-09T03:35:41.449Z,95696.53
2022-11-09T03:38:09.368Z,95601.50
2022-11-09T03:40:37.401Z,95677.28
2022-11-09T03:43:06.973Z,95694.91
2022-11-09T03:45:35.207Z,95669.19
2022-11-09T03:48:02.974Z,95690.16
2022-11-09T03:50:33.040Z,95688.66
2022-11-09T03:53:01.757Z,95687.09
2022-11-09T03:55:30.786Z,95680.53
2022-11-09T03:57:58.431Z,95681.31
2022-11-09T04:00:27.648Z,95684.47
2022-11-09T04:02:57.009Z,95648.34
2022-11-09T04:05:24.894Z,95685.97
2022-11-09T04:07:54.832Z,95678.63
2022-11-09T04:10:23.721Z,95627.59
2022-11-09T04:12:51.821Z,95683.63
2022-11-09T04:15:19.625Z,95681.56
2022-11-09T04:17:57.127Z,95569.06
2022-11-09T04:20:25.000Z,95678.94
2022-11-09T04:22:56.665Z,95679.25
2022-11-09T04:25:25.854Z,95676.34
2022-11-09T04:27:57.461Z,95676.88
2022-11-09T04:30:27.880Z,95674.56
2022-11-09T04:32:57.367Z,95685.56
2022-11-09T04:35:26.237Z,95689.19
2022-11-09T04:37:55.033Z,95684.53
2022-11-09T04:40:23.330Z,95690.38
2022-11-09T04:42:51.036Z,95684.03
2022-11-09T04:45:19.147Z,95686.41
2022-11-09T04:47:46.876Z,95682.53
2022-11-09T04:50:16.091Z,95684.88
2022-11-09T04:52:43.777Z,95674.19
2022-11-09T04:55:11.422Z,95595.75
2022-11-09T04:57:39.155Z,95688.84
2022-11-09T05:00:07.765Z,95687.56
2022-11-09T05:02:35.450Z,95694.59
2022-11-09T05:05:03.182Z,95570.00
2022-11-09T05:07:32.318Z,95686.81
2022-11-09T05:09:59.972Z,95653.56
2022-11-09T05:12:27.666Z,95698.78
2022-11-09T05:14:57.613Z,95598.34
2022-11-09T05:17:25.318Z,95688.53
2022-11-09T05:19:55.859Z,95680.38
2022-11-09T05:22:41.110Z,95690.22
2022-11-09T05:25:11.042Z,95701.75
2022-11-09T05:27:39.850Z,95674.19
2022-11-09T05:30:09.003Z,95685.81
2022-11-09T05:32:39.307Z,95657.84
2022-11-09T05:35:08.203Z,95686.56
2022-11-09T05:37:35.922Z,95687.59
2022-11-09T05:40:03.698Z,95692.53
2022-11-09T05:42:32.779Z,95684.69
2022-11-09T05:45:21.103Z,95678.38
2022-11-09T05:47:48.830Z,95689.97
2022-11-09T05:50:17.324Z,95696.81
2022-11-09T05:52:50.900Z,95708.31
2022-11-09T05:55:18.717Z,95701.38
2022-11-09T05:57:47.857Z,95705.34
2022-11-09T06:00:16.823Z,95623.31
2022-11-09T06:02:44.553Z,95711.38
2022-11-09T06:05:12.570Z,95691.66
2022-11-09T06:07:40.223Z,95718.53
2022-11-09T06:10:09.355Z,95724.25
2022-11-09T06:12:37.005Z,95712.91
2022-11-09T06:15:06.847Z,95738.81
2022-11-09T06:17:34.494Z,95748.97
2022-11-09T06:20:02.165Z,95739.13
2022-11-09T06:22:29.815Z,95772.06
2022-11-09T06:24:57.493Z,95761.28
2022-11-09T06:27:25.157Z,95760.94
2022-11-09T06:29:52.804Z,95768.91
2022-11-09T06:32:21.805Z,95789.31
2022-11-09T06:34:50.501Z,95739.31
2022-11-09T06:37:18.193Z,95800.41
2022-11-09T06:39:47.362Z,95811.47
2022-11-09T06:42:15.141Z,95798.38
2022-11-09T06:44:42.807Z,95794.53
2022-11-09T06:47:10.578Z,95824.25
2022-11-09T06:49:39.629Z,95776.44
2022-11-09T06:52:07.309Z,95810.19
2022-11-09T06:54:35.053Z,95755.97
2022-11-09T06:57:02.854Z,95849.09
2022-11-09T06:59:30.577Z,95846.03
2022-11-09T07:02:01.648Z,95856.09
2022-11-09T07:04:29.645Z,95767.75
2022-11-09T07:06:58.731Z,95766.25
2022-11-09T07:09:27.068Z,95799.34
2022-11-09T07:11:54.851Z,95831.25
2022-11-09T07:14:23.349Z,95861.72
2022-11-09T07:16:51.051Z,95847.88
2022-11-09T07:19:18.775Z,95863.53
2022-11-09T07:21:46.426Z,95853.63
2022-11-09T07:24:15.475Z,95854.63
2022-11-09T07:26:43.137Z,95859.88
2022-11-09T07:29:10.842Z,95807.28
2022-11-09T07:31:38.485Z,95839.91
2022-11-09T07:34:06.178Z,95856.72
2022-11-09T07:36:36.609Z,95863.59
2022-11-09T07:39:04.938Z,95848.41
2022-11-09T07:41:34.984Z,95839.50
2022-11-09T07:44:02.990Z,95843.72
2022-11-09T07:46:30.884Z,95795.31
2022-11-09T07:48:58.659Z,95845.34
2022-11-09T07:51:26.341Z,95848.50
2022-11-09T07:53:54.035Z,95842.78
2022-11-09T07:56:21.679Z,95842.78
2022-11-09T07:58:51.856Z,95844.38
2022-11-09T08:01:19.521Z,95844.69
2022-11-09T08:03:47.163Z,95848.63
2022-11-09T08:06:18.443Z,95780.81
2022-11-09T08:08:46.923Z,95856.81
2022-11-09T08:11:14.558Z,95765.66
2022-11-09T08:13:42.403Z,95866.06
2022-11-09T08:16:11.423Z,95860.59
2022-11-09T08:18:39.357Z,95791.53
2022-11-09T08:21:07.316Z,95857.75
2022-11-09T08:23:35.090Z,95811.50
2022-11-09T08:26:04.539Z,95829.41
2022-11-09T08:28:32.585Z,95851.25
2022-11-09T08:31:02.021Z,95869.41
2022-11-09T08:33:35.055Z,95857.88
2022-11-09T08:36:02.768Z,95864.97
2022-11-09T08:38:33.136Z,95859.44
2022-11-09T08:41:00.908Z,95870.47
2022-11-09T08:43:28.604Z,95851.31
2022-11-09T08:45:56.336Z,95878.63
2022-11-09T08:48:24.117Z,95864.44
2022-11-09T08:50:54.914Z,95892.50
2022-11-09T08:53:23.130Z,95887.25
2022-11-09T08:55:51.230Z,95895.09
2022-11-09T08:58:20.408Z,95897.72
2022-11-09T09:00:48.831Z,95885.38
2022-11-09T09:03:16.470Z,95876.94
2022-11-09T09:05:44.131Z,95896.06
2022-11-09T09:08:15.339Z,95895.53
2022-11-09T09:10:43.403Z,95891.53
2022-11-09T09:13:11.301Z,95865.81
2022-11-09T09:15:38.948Z,95819.16
2022-11-09T09:18:06.925Z,95893.84
2022-11-09T09:20:34.606Z,95887.50
2022-11-09T09:23:02.641Z,95872.31
2022-11-09T09:25:31.887Z,95903.22
2022-11-09T09:27:59.647Z,95897.38
2022-11-09T09:30:27.329Z,95899.38
2022-11-09T09:33:00.093Z,95833.22
2022-11-09T09:35:28.517Z,95891.34
2022-11-09T09:37:58.016Z,95894.72
2022-11-09T09:40:30.925Z,95881.84
2022-11-09T09:43:00.083Z,95847.44
2022-11-09T09:45:32.086Z,95892.75
2022-11-09T09:48:05.324Z,95865.94
2022-11-09T09:50:38.699Z,95898.03
2022-11-09T09:53:24.698Z,95884.13
2022-11-09T09:55:57.074Z,95896.88
2022-11-09T09:58:28.456Z,95894.75
2022-11-09T10:01:00.854Z,95894.41
2022-11-09T10:03:28.569Z,95895.34
2022-11-09T10:06:03.209Z,95893.44
2022-11-09T10:08:43.706Z,95892.28
2022-11-09T10:11:22.355Z,95863.25
2022-11-09T10:14:11.129Z,95804.78
2022-11-09T10:16:46.585Z,95828.78
2022-11-09T10:19:30.143Z,95885.78
2022-11-09T10:22:04.781Z,95902.56
2022-11-09T10:24:58.741Z,95896.34
2022-11-09T10:27:35.168Z,95896.78
2022-11-09T10:30:12.855Z,95815.19
2022-11-09T10:32:41.396Z,95851.97
2022-11-09T10:35:21.250Z,95882.78
2022-11-09T10:37:50.264Z,95874.78
2022-11-09T10:40:23.785Z,95871.78
2022-11-09T10:43:11.784Z,95868.78
2022-11-09T10:46:05.492Z,95867.38
2022-11-09T10:48:53.064Z,95867.19
2022-11-09T10:51:41.519Z,95861.88
2022-11-09T10:54:29.466Z,95858.88
2022-11-09T10:57:18.499Z,95850.91
2022-11-09T11:00:06.300Z,95849.31
2022-11-09T11:02:54.854Z,95815.09
2022-11-09T11:05:41.404Z,95852.31
2022-11-09T11:08:31.823Z,95846.00
2022-11-09T11:11:38.193Z,95833.03
2022-11-09T11:14:31.081Z,95841.63
2022-11-09T11:17:25.553Z,95829.75
2022-11-09T11:20:30.989Z,95810.94
2022-11-09T11:23:19.879Z,95823.91
2022-11-09T11:26:35.188Z,95826.53
2022-11-09T11:29:32.451Z,95832.63
2022-11-09T11:32:20.851Z,95808.09
2022-11-09T11:35:14.461Z,95809.66
2022-11-09T11:38:17.530Z,95814.81
2022-11-09T11:41:18.573Z,95820.88
2022-11-09T11:44:17.354Z,95823.03
2022-11-09T11:47:10.568Z,95823.66
2022-11-09T11:50:08.940Z,95807.28
2022-11-09T11:53:08.768Z,95814.66
2022-11-09T11:56:17.987Z,95814.38
2022-11-09T11:59:24.946Z,95805.97
2022-11-09T12:02:34.801Z,95807.66
2022-11-09T12:05:41.239Z,95785.78
2022-11-09T12:08:39.221Z,95805.94
2022-11-09T12:11:40.039Z,95804.66
2022-11-09T12:14:37.230Z,95802.22
2022-11-09T12:17:29.533Z,95786.00
2022-11-09T12:20:26.692Z,95804.13
2022-11-09T12:23:30.184Z,95795.06
2022-11-09T12:26:25.357Z,95789.28
2022-11-09T12:29:20.437Z,95788.47
2022-11-09T12:32:17.191Z,95784.25
2022-11-09T12:35:18.413Z,95757.06
2022-11-09T12:38:11.564Z,95772.38
2022-11-09T12:41:02.194Z,95781.44
2022-11-09T12:43:54.895Z,95780.34
2022-11-09T12:46:47.340Z,95779.25
2022-11-09T12:49:37.496Z,95780.47
2022-11-09T12:52:29.093Z,95783.44
2022-11-09T12:55:16.720Z,95766.66
2022-11-09T12:58:03.122Z,95770.81
2022-11-09T13:00:53.734Z,95769.72
2022-11-09T13:03:53.519Z,95772.97
2022-11-09T13:06:39.964Z,95774.63
2022-11-09T13:09:39.851Z,95767.63
2022-11-09T13:12:40.288Z,95767.47
2022-11-09T13:15:28.847Z,95763.38
2022-11-09T13:18:27.468Z,95762.88
2022-11-09T13:21:36.712Z,95755.81
2022-11-09T13:24:55.120Z,95760.47
2022-11-09T13:27:43.903Z,95742.03
2022-11-09T13:30:43.044Z,95754.66
2022-11-09T13:33:31.495Z,95756.84
2022-11-09T13:36:20.729Z,95757.94
2022-11-09T13:39:29.511Z,95753.84
2022-11-09T13:42:28.939Z,95756.97
2022-11-09T13:45:27.868Z,95759.03
2022-11-09T13:48:30.561Z,95757.28
2022-11-09T13:51:21.033Z,95757.56
2022-11-09T13:54:29.801Z,95746.16
2022-11-09T13:57:17.403Z,95747.41
2022-11-09T14:00:06.144Z,95759.28
2022-11-09T14:03:02.653Z,95764.09
2022-11-09T14:05:52.190Z,95764.72
2022-11-09T14:08:41.876Z,95766.88
2022-11-09T14:11:58.785Z,95763.75
2022-11-09T14:15:10.183Z,95766.81
2022-11-09T14:18:13.665Z,95770.09
2022-11-09T14:21:18.625Z,95774.28
2022-11-09T14:24:16.059Z,95780.06
2022-11-09T14:27:18.234Z,95774.00
2022-11-09T14:30:18.821Z,95772.25
2022-11-09T14:33:19.633Z,95773.44
2022-11-09T14:36:06.562Z,95772.03
2022-11-09T14:38:53.130Z,95772.63
2022-11-09T14:41:45.680Z,95772.91
2022-11-09T14:44:39.830Z,95775.06
2022-11-09T14:47:31.415Z,95735.44
2022-11-09T14:50:21.029Z,95782.06
2022-11-09T14:53:07.763Z,95784.19
2022-11-09T14:55:56.284Z,95768.44
2022-11-09T14:58:45.558Z,95776.50
2022-11-09T15:01:32.468Z,95768.78
2022-11-09T15:04:22.775Z,95781.06
2022-11-09T15:07:19.982Z,95781.63
2022-11-09T15:10:10.276Z,95775.97
2022-11-09T15:13:00.618Z,95775.31
2022-11-09T15:15:54.895Z,95773.16
2022-11-09T15:18:46.184Z,95787.66
2022-11-09T15:21:37.804Z,95791.81
2022-11-09T15:24:26.373Z,95790.03
2022-11-09T15:27:32.132Z,95782.22
2022-11-09T15:30:34.139Z,95757.13
2022-11-09T15:33:26.683Z,95777.63
2022-11-09T15:36:32.188Z,95785.06
2022-11-09T15:39:20.539Z,95786.25
2022-11-09T15:42:07.128Z,95792.72
2022-11-09T15:44:54.501Z,95797.81
2022-11-09T15:47:40.867Z,95775.22
2022-11-09T15:50:28.711Z,95807.59
2022-11-09T15:53:15.849Z,95803.84
2022-11-09T15:56:02.577Z,95804.81
2022-11-09T15:58:49.610Z,95814.59
2022-11-09T16:01:36.090Z,95806.78
2022-11-09T16:04:22.641Z,95794.00
2022-11-09T16:07:15.309Z,95808.28
2022-11-09T16:10:01.764Z,95821.03
2022-11-09T16:12:48.095Z,95826.16
2022-11-09T16:15:35.076Z,95676.09
2022-11-09T16:18:25.739Z,95827.59
2022-11-09T16:21:13.909Z,95833.72
2022-11-09T16:24:01.289Z,95839.00
2022-11-09T16:26:47.808Z,95813.53
2022-11-09T16:29:37.238Z,95847.50
2022-11-09T16:32:23.638Z,95847.34
2022-11-09T16:35:28.009Z,95850.16
2022-11-09T16:38:15.093Z,95853.84
2022-11-09T16:41:05.193Z,95856.56
2022-11-09T16:43:53.832Z,95861.59
2022-11-09T16:46:43.315Z,95871.84
2022-11-09T16:49:31.863Z,95874.59
2022-11-09T16:52:18.384Z,95872.44
2022-11-09T16:55:05.696Z,95882.41
2022-11-09T16:57:53.528Z,95873.59
2022-11-09T17:01:08.813Z,95854.03
2022-11-09T17:03:51.177Z,95885.44
2022-11-09T17:06:37.419Z,95892.28
2022-11-09T17:09:23.621Z,95878.03
2022-11-09T17:12:09.684Z,95908.13
2022-11-09T17:14:57.223Z,95912.16
2022-11-09T17:17:43.670Z,95922.16
2022-11-09T17:20:29.783Z,95932.72
2022-11-09T17:23:18.673Z,95934.41
2022-11-09T17:26:07.411Z,95940.94
2022-11-09T17:28:53.707Z,95950.25
2022-11-09T17:31:41.280Z,95953.94
2022-11-09T17:34:27.852Z,95955.19
2022-11-09T17:37:13.871Z,95939.00
2022-11-09T17:40:00.417Z,95943.50
2022-11-09T17:42:47.109Z,95925.38
2022-11-09T17:45:35.880Z,95916.59
2022-11-09T17:48:23.676Z,95885.78
2022-11-09T17:51:11.529Z,95963.16
2022-11-09T17:53:57.887Z,95958.69
2022-11-09T17:56:44.044Z,95962.72
2022-11-09T17:59:30.300Z,95974.63
2022-11-09T18:02:18.488Z,95990.28
2022-11-09T18:05:07.305Z,95980.78
2022-11-09T18:07:53.664Z,95982.84
2022-11-09T18:10:41.341Z,95968.75
2022-11-09T18:13:28.620Z,95953.13
2022-11-09T18:16:17.851Z,95984.56
2022-11-09T18:19:06.080Z,95988.28
2022-11-09T18:21:53.798Z,95984.13
2022-11-09T18:24:40.426Z,95990.19
2022-11-09T18:27:30.248Z,95987.84
2022-11-09T18:30:30.950Z,95981.81
2022-11-09T18:33:17.130Z,95973.13
2022-11-09T18:36:05.689Z,95972.31
2022-11-09T18:38:55.707Z,95977.84
2022-11-09T18:41:41.824Z,95956.72
2022-11-09T18:44:29.034Z,95987.91
2022-11-09T18:47:15.127Z,96000.09
2022-11-09T18:50:01.323Z,96003.81
2022-11-09T18:52:47.627Z,96004.72
2022-11-09T18:55:35.203Z,96005.28
2022-11-09T18:58:21.584Z,96002.41
2022-11-09T19:01:09.074Z,95994.66
2022-11-09T19:03:59.260Z,95995.94
2022-11-09T19:06:46.065Z,96008.53
2022-11-09T19:09:35.843Z,96009.94
2022-11-09T19:12:24.238Z,96018.88
2022-11-09T19:15:11.438Z,96021.56
2022-11-09T19:17:57.839Z,96010.66
2022-11-09T19:20:44.140Z,95988.59
2022-11-09T19:23:34.379Z,96018.75
2022-11-09T19:26:21.978Z,96018.03
2022-11-09T19:29:10.148Z,96039.31
2022-11-09T19:31:56.591Z,96039.06
2022-11-09T19:34:43.546Z,96037.75
2022-11-09T19:37:29.812Z,96043.78
2022-11-09T19:40:16.688Z,96053.59
2022-11-09T19:43:03.036Z,96006.81
2022-11-09T19:45:50.280Z,96050.13
2022-11-09T19:48:37.392Z,96021.31
2022-11-09T19:51:24.227Z,96021.03
2022-11-09T19:54:12.519Z,96043.78
2022-11-09T19:56:58.552Z,96035.69
2022-11-09T19:59:44.706Z,96044.44
2022-11-09T20:02:32.228Z,96050.72
2022-11-09T20:05:18.634Z,96055.47
2022-11-09T20:08:05.903Z,96054.75
2022-11-09T20:10:52.284Z,96058.72
2022-11-09T20:13:39.013Z,96060.28
2022-11-09T20:16:25.528Z,96048.28
2022-11-09T20:19:14.203Z,96061.41
2022-11-09T20:22:00.719Z,96072.22
2022-11-09T20:24:50.602Z,96076.19
2022-11-09T20:27:37.069Z,96071.91
2022-11-09T20:30:23.514Z,96063.50
2022-11-09T20:33:11.900Z,96076.38
2022-11-09T20:35:59.448Z,96076.38
2022-11-09T20:38:45.959Z,96069.28
2022-11-09T20:41:49.735Z,96077.72
2022-11-09T20:44:36.320Z,96080.06
2022-11-09T20:47:49.027Z,96083.28
2022-11-09T20:50:28.920Z,96090.88
2022-11-09T20:53:16.765Z,96089.25
2022-11-09T20:56:07.667Z,96094.53
2022-11-09T20:58:54.209Z,96091.09
2022-11-09T21:01:41.615Z,96096.16
2022-11-09T21:04:27.827Z,96095.25
2022-11-09T21:07:14.088Z,96107.41
2022-11-09T21:10:01.495Z,96091.97
2022-11-09T21:12:47.722Z,96103.09
2022-11-09T21:15:33.971Z,96109.28
2022-11-09T21:18:22.907Z,96119.34
2022-11-09T21:21:11.520Z,96123.06
2022-11-09T21:24:15.311Z,96128.34
2022-11-09T21:27:20.450Z,96130.19
2022-11-09T21:30:07.894Z,96136.94
2022-11-09T21:32:54.340Z,96134.91
2022-11-09T21:35:40.351Z,96139.41
2022-11-09T21:38:26.512Z,96140.97
2022-11-09T21:41:30.115Z,96139.41
2022-11-09T21:44:17.958Z,96142.53
2022-11-09T21:47:04.915Z,96150.16
2022-11-09T21:49:51.349Z,96154.16
2022-11-09T21:52:37.697Z,96151.00
2022-11-09T21:55:23.859Z,96162.66
2022-11-09T21:58:10.219Z,96165.53
2022-11-09T22:01:15.817Z,96160.28
2022-11-09T22:04:02.451Z,96164.72
2022-11-09T22:06:48.878Z,96174.22
2022-11-09T22:09:57.739Z,96177.41
2022-11-09T22:13:00.875Z,96167.63
2022-11-09T22:16:10.233Z,96176.41
2022-11-09T22:19:15.681Z,96178.97
2022-11-09T22:22:02.241Z,96175.84
2022-11-09T22:24:48.527Z,96181.94
2022-11-09T22:27:35.132Z,96187.47
2022-11-09T22:30:21.710Z,96179.63
2022-11-09T22:33:07.881Z,96183.38
2022-11-09T22:35:56.578Z,96199.72
2022-11-09T22:38:43.088Z,96210.53
2022-11-09T22:41:29.280Z,96211.50
2022-11-09T22:44:15.954Z,96208.91
2022-11-09T22:47:02.530Z,96206.03
2022-11-09T22:49:48.713Z,96218.66
2022-11-09T22:52:36.348Z,96218.66
2022-11-09T22:55:22.445Z,96216.06
2022-11-09T22:58:08.528Z,96218.66
2022-11-09T23:00:55.034Z,96217.09
2022-11-09T23:03:41.394Z,96210.63
2022-11-09T23:06:27.831Z,96219.28
2022-11-09T23:09:15.480Z,96217.69
2022-11-09T23:12:01.649Z,96222.66
2022-11-09T23:15:05.937Z,96227.47
2022-11-09T23:18:11.338Z,96231.94
2022-11-09T23:21:00.372Z,96231.66
2022-11-09T23:23:46.886Z,96223.88
2022-11-09T23:26:36.517Z,96236.47
2022-11-09T23:29:22.828Z,96232.56
2022-11-09T23:32:09.141Z,96217.28
2022-11-09T23:34:55.432Z,96240.47
2022-11-09T23:37:41.500Z,96249.94
2022-11-09T23:40:27.975Z,96234.97
2022-11-09T23:43:16.893Z,96246.25
2022-11-09T23:46:04.834Z,96230.50
2022-11-09T23:48:51.185Z,96243.66
2022-11-09T23:51:37.238Z,96249.44
2022-11-09T23:54:23.448Z,96255.75
2022-11-09T23:57:09.640Z,96254.19
2022-11-09T23:59:57.148Z,96260.50
